• Join FlightAware (Why Join?)
  • Login
  • US Flag 
09:30AM EDT


 

Airport Tracker/Info


-or-


 

Live Flight TrackerFlight Track Log ✈ UAL4336 ✈ 21-Apr-2013 ✈ KIND - KIAH

Flight Track Log - Related Links

Times and Time Zones

All times are in EDT time to prevent confusion due to time zone crossing. See the UAL4336 flight status page for this flight to view local times or setup timezone preferences in your user account.

Time Position Orientation Groundspeed Altitude Reporting Facility
EDT Latitude Longitude Course Direction KTS MPH feet Rate Location/Type
06:35AM 39.7167 -86.2833 201° Southwest 157 181 1,200  Level Indianapolis TRACON
06:36AM 39.7333 -86.2000 75° East 221 254 3,800 2,400 Climbing Indianapolis TRACON
06:37AM 39.6667 -86.2167 191° South 266 306 6,600 2,820 Climbing Indianapolis TRACON
06:38AM 39.4500 -86.4262 204° Southwest  Level FlightAware Approximate
06:38AM 39.6094 -86.2586 209° Southwest 271 312 9,300  Level Indianapolis Center
06:39AM 39.3613 -86.4769 204° Southwest  Level FlightAware Approximate
06:39AM 39.5403 -86.3178 213° Southwest 286 329 11,200  Level Indianapolis Center
06:40AM 39.2710 -86.5229 201° Southwest  Level FlightAware Approximate
06:40AM 39.4525 -86.3831 210° Southwest 352 405 12,700  Level Indianapolis Center
06:41AM 39.3639 -86.4494 210° Southwest 365 420 14,700 1,980 Climbing Indianapolis Center
06:42AM 39.2728 -86.5175 210° Southwest 373 429 16,700 1,680 Climbing Indianapolis Center
06:43AM 39.1819 -86.5853 210° Southwest 375 432 18,200 1,500 Climbing Indianapolis Center
06:44AM 39.0872 -86.6478 207° Southwest 379 436 19,800 1,500 Climbing Indianapolis Center
06:45AM 38.9875 -86.7050 204° Southwest 387 445 21,300 1,440 Climbing Indianapolis Center
06:46AM 38.8886 -86.7650 205° Southwest 391 450 22,800 1,440 Climbing Indianapolis Center
06:47AM 38.7886 -86.8242 205° Southwest 393 452 24,300 1,500 Climbing Indianapolis Center
06:48AM 38.6906 -86.8836 205° Southwest 387 445 25,900 1,500 Climbing Indianapolis Center
06:49AM 38.5931 -86.9403 204° Southwest 383 441 27,400 1,440 Climbing Indianapolis Center
06:50AM 38.5000 -87.0039 208° Southwest 379 436 28,900 1,380 Climbing Indianapolis Center
06:51AM 38.4189 -87.0828 217° Southwest 369 425 30,300 1,320 Climbing Indianapolis Center
06:52AM 38.3347 -87.1644 217° Southwest 371 427 31,600 1,260 Climbing Indianapolis Center
06:53AM 38.2569 -87.2383 217° Southwest 374 430 32,900 1,260 Climbing Indianapolis Center
06:54AM 38.1742 -87.3169 217° Southwest 372 428 34,200 1,200 Climbing Indianapolis Center
06:55AM 38.0925 -87.3936 216° Southwest 367 422 35,400 840 Climbing Indianapolis Center
06:56AM 38.0108 -87.4728 217° Southwest 366 421 36,000 240 Climbing Indianapolis Center
06:57AM 37.9253 -87.5533 217° Southwest 376 433 36,000  Level Indianapolis Center
06:58AM 37.8353 -87.6378 217° Southwest 396 456 36,000  Level Indianapolis Center
06:59AM 37.7358 -87.7300 216° Southwest 398 458 36,000  Level Indianapolis Center
07:00AM 37.6481 -87.8122 217° Southwest 391 450 36,000  Level Indianapolis Center
07:01AM 37.5986 -87.8678 222° Southwest 400 460 36,000  Level Memphis Center
07:02AM 37.5147 -87.9517 218° Southwest 400 460 36,000  Level Memphis Center
07:03AM 37.4225 -88.0328 215° Southwest 400 460 36,000  Level Memphis Center
07:04AM 37.3367 -88.1214 219° Southwest 405 466 36,000  Level Memphis Center
07:05AM 37.2531 -88.2175 222° Southwest 412 474 36,000  Level Memphis Center
07:06AM 37.1711 -88.3108 222° Southwest 412 474 36,000  Level Memphis Center
07:07AM 37.0894 -88.4092 224° Southwest 412 474 36,000  Level Memphis Center
07:08AM 37.0056 -88.5022 222° Southwest 412 474 36,000  Level Memphis Center
07:09AM 36.9214 -88.6000 223° Southwest 412 474 36,000  Level Memphis Center
07:10AM 36.8375 -88.6978 223° Southwest 412 474 36,000  Level Memphis Center
07:11AM 36.7533 -88.7953 223° Southwest 412 474 36,000  Level Memphis Center
07:12AM 36.6669 -88.8903 221° Southwest 412 474 36,000  Level Memphis Center
07:13AM 36.5825 -88.9900 223° Southwest 412 474 36,000  Level Memphis Center
07:14AM 36.5003 -89.0842 223° Southwest 412 474 36,000  Level Memphis Center
07:15AM 36.4319 -89.1550 220° Southwest 412 474 36,000  Level Memphis Center
07:16AM 36.3394 -89.2672 224° Southwest 412 474 36,000  Level Memphis Center
07:17AM 36.2483 -89.3636 220° Southwest 417 480 36,000  Level Memphis Center
07:18AM 36.1678 -89.4597 224° Southwest 423 487 36,000  Level Memphis Center
07:19AM 36.0831 -89.5531 222° Southwest 418 481 36,000  Level Memphis Center
07:20AM 35.9981 -89.6489 222° Southwest 411 473 36,000  Level Memphis Center
07:21AM 35.9153 -89.7444 223° Southwest 411 473 36,000  Level Memphis Center
07:22AM 35.8300 -89.8397 222° Southwest 411 473 36,000  Level Memphis Center
07:23AM 35.7450 -89.9325 222° Southwest 411 473 36,000  Level Memphis Center
07:24AM 35.6578 -90.0350 224° Southwest 411 473 36,000  Level Memphis Center
07:25AM 35.5744 -90.1247 221° Southwest 404 465 36,000  Level Memphis Center
07:26AM 35.4911 -90.2194 223° Southwest 404 465 36,000  Level Memphis Center
07:27AM 35.4058 -90.3136 222° Southwest 404 465 36,000  Level Memphis Center
07:28AM 35.3244 -90.4028 222° Southwest 404 465 36,000  Level Memphis Center
07:29AM 35.2408 -90.4944 222° Southwest 409 471 36,000  Level Memphis Center
07:30AM 35.1594 -90.5831 222° Southwest 409 471 36,000  Level Memphis Center
07:31AM 35.0758 -90.6767 223° Southwest 409 471 36,000  Level Memphis Center
07:32AM 34.9922 -90.7653 221° Southwest 409 471 36,000  Level Memphis Center
07:33AM 34.9106 -90.8533 221° Southwest 403 464 36,000  Level Memphis Center
07:34AM 34.8267 -90.9439 222° Southwest 403 464 36,000  Level Memphis Center
07:35AM 34.7447 -91.0319 221° Southwest 403 464 36,000  Level Memphis Center
07:36AM 34.6692 -91.1147 222° Southwest 403 464 36,000  Level Memphis Center
07:37AM 34.5872 -91.2022 221° Southwest 403 464 36,000  Level Memphis Center
07:38AM 34.4908 -91.2744 212° Southwest 414 476 36,000  Level Memphis Center
07:39AM 34.3839 -91.3361 205° Southwest 414 476 36,000  Level Memphis Center
07:40AM 34.2811 -91.3953 205° Southwest 414 476 36,000  Level Memphis Center
07:41AM 34.1764 -91.4544 205° Southwest 414 476 36,000  Level Memphis Center
07:42AM 34.0694 -91.5131 204° Southwest 419 482 36,000  Level Memphis Center
07:44AM 33.9033 -91.6081 205° Southwest 362 417 36,000  Level Fort Worth Center
07:45AM 33.8142 -91.6614 206° Southwest 388 447 36,000  Level Fort Worth Center
07:46AM 33.7144 -91.7181 205° Southwest 407 468 36,000  Level Fort Worth Center
07:47AM 33.6147 -91.7744 205° Southwest 412 474 36,000  Level Fort Worth Center
07:48AM 33.5089 -91.8333 205° Southwest 412 474 36,000  Level Fort Worth Center
07:49AM 33.4050 -91.8922 205° Southwest 412 474 36,000  Level Fort Worth Center
07:50AM 33.2992 -91.9511 205° Southwest 417 480 36,000  Level Fort Worth Center
07:51AM 33.1889 -92.0100 204° Southwest 422 486 36,000  Level Fort Worth Center
07:52AM 33.0850 -92.0683 205° Southwest 422 486 36,000  Level Fort Worth Center
07:53AM 32.9789 -92.1267 205° Southwest 422 486 36,000  Level Fort Worth Center
07:54AM 32.8769 -92.1822 205° Southwest 417 480 36,000  Level Fort Worth Center
07:55AM 32.7708 -92.2403 205° Southwest 417 480 36,000  Level Fort Worth Center
07:56AM 32.6547 -92.3086 206° Southwest 417 480 36,000  Level Fort Worth Center
07:57AM 32.5506 -92.3661 205° Southwest 423 487 36,000  Level Fort Worth Center
07:58AM 32.3711 -92.4603 204° Southwest 416 479 36,000  Level Houston Center
07:59AM 32.2650 -92.5178 205° Southwest 419 482 36,000  Level Houston Center
08:00AM 32.1592 -92.5772 205° Southwest 422 486 36,000  Level Houston Center
08:01AM 32.0533 -92.6344 205° Southwest 420 483 36,000  Level Houston Center
08:02AM 31.9506 -92.6978 208° Southwest 418 481 36,000 -240 Level Houston Center
08:03AM 31.8650 -92.7828 220° Southwest 404 465 35,600 -600 Descending Houston Center
08:04AM 31.7778 -92.8658 219° Southwest 406 467 34,900 -300 Descending Houston Center
08:05AM 31.6953 -92.9467 220° Southwest 389 448 35,000  Climbing Houston Center
08:06AM 31.6092 -93.0289 219° Southwest 398 458 35,000  Level Houston Center
08:07AM 31.5258 -93.1106 220° Southwest 393 452 35,000  Level Houston Center
08:08AM 31.4419 -93.1875 218° Southwest 386 444 35,000  Level Houston Center
08:09AM 31.3603 -93.2658 219° Southwest 382 440 35,000  Level Houston Center
08:10AM 31.2625 -93.3619 220° Southwest 383 441 35,000 -60 Level Houston Center
08:12AM 31.1806 -93.4386 219° Southwest 380 437 34,900 -780 Descending Houston Center
08:13AM 31.0994 -93.5161 219° Southwest 379 436 33,500 -1,680 Descending Houston Center
08:14AM 31.0189 -93.5919 219° Southwest 374 430 31,600 -1,980 Descending Houston Center
08:15AM 30.9378 -93.6700 220° Southwest 378 435 29,600 -1,920 Descending Houston Center
08:16AM 30.8547 -93.7486 219° Southwest 385 443 27,700 -1,920 Descending Houston Center
08:17AM 30.7672 -93.8297 219° Southwest 400 460 25,700 -2,100 Descending Houston Center
08:18AM 30.6828 -93.9111 220° Southwest 399 459 23,500 -2,280 Descending Houston Center
08:19AM 30.5692 -94.0169 219° Southwest 395 455 20,700 -2,160 Descending Houston Center
08:20AM 30.5131 -94.0694 219° Southwest 393 452 19,200 -2,160 Descending Houston Center
08:21AM 30.4192 -94.1753 224° Southwest 362 417 16,600 -2,340 Descending Houston Center
08:22AM 30.3717 -94.2633 238° Southwest 358 412 14,500 -2,160 Descending Houston Center
08:23AM 30.3189 -94.3561 237° Southwest 350 403 12,500 -1,260 Descending Houston Center
08:24AM 30.2650 -94.4483 236° Southwest 348 400 12,000 -720 Descending Houston Center
08:25AM 30.2058 -94.5475 235° Southwest 301 346 11,000 -1,200 Descending Houston Center
08:26AM 30.1758 -94.6169 243° Southwest 306 352 9,600 -1,500 Descending Houston Center
08:27AM 30.1419 -94.7128 248° West 268 308 8,000 -1,680 Descending Houston Center
08:28AM 30.1122 -94.7986 248° West 259 298 6,000 -1,680 Descending Houston Center
08:29AM 30.0933 -94.8514 248° West 258 297 4,700 -1,500 Descending Houston Center
08:30AM 30.0667 -94.9283 248° West 259 298 3,200 -1,200 Descending Houston Center
08:31AM 30.0400 -95.0044 248° West 258 297 2,300 -600 Descending Houston Center
08:32AM 30.0192 -95.0817 253° West 256 295 2,000 -180 Descending Houston Center
08:33AM 29.9947 -95.1739 253° West 254 292 2,000 -180 Level Houston Center
08:34AM 29.9942 -95.2353 269° West 205 236 1,700 -300 Descending Houston Center